createdAt,value
2019-05-26T00:00:29.496Z,23.65
2019-05-26T00:02:56.695Z,21.82
2019-05-26T00:05:24.127Z,22.05
2019-05-26T00:07:51.021Z,23.40
2019-05-26T00:10:18.339Z,22.13
2019-05-26T00:12:45.631Z,21.23
2019-05-26T00:15:13.213Z,20.60
2019-05-26T00:17:40.211Z,19.07
2019-05-26T00:20:08.731Z,20.08
2019-05-26T00:22:35.622Z,19.75
2019-05-26T00:25:05.623Z,19.73
2019-05-26T00:27:32.715Z,20.90
2019-05-26T00:29:59.827Z,20.12
2019-05-26T00:32:46.055Z,20.08
2019-05-26T00:35:13.567Z,20.60
2019-05-26T00:37:49.002Z,19.82
2019-05-26T00:40:10.637Z,19.98
2019-05-26T00:42:38.276Z,19.23
2019-05-26T00:45:07.425Z,19.32
2019-05-26T00:47:34.874Z,20.70
2019-05-26T00:50:05.319Z,20.17
2019-05-26T00:52:32.350Z,20.80
2019-05-26T00:54:59.816Z,21.70
2019-05-26T00:57:27.054Z,21.65
2019-05-26T00:59:54.538Z,20.72
2019-05-26T01:02:21.866Z,19.40
2019-05-26T01:04:49.448Z,19.25
2019-05-26T01:07:16.650Z,16.90
2019-05-26T01:09:43.791Z,17.37
2019-05-26T01:12:11.307Z,18.15
2019-05-26T01:14:38.932Z,17.85
2019-05-26T01:17:06.276Z,17.77
2019-05-26T01:19:33.602Z,18.25
2019-05-26T01:22:01.452Z,17.52
2019-05-26T01:24:28.960Z,17.57
2019-05-26T01:26:56.426Z,17.65
2019-05-26T01:29:23.520Z,16.65
2019-05-26T01:31:50.657Z,17.00
2019-05-26T01:34:18.280Z,18.92
2019-05-26T01:36:46.023Z,19.27
2019-05-26T01:39:13.432Z,19.37
2019-05-26T01:41:40.807Z,20.40
2019-05-26T01:44:08.144Z,21.40
2019-05-26T01:46:35.145Z,23.42
2019-05-26T01:49:02.699Z,21.95
2019-05-26T01:51:29.767Z,20.65
2019-05-26T01:53:57.529Z,19.37
2019-05-26T01:56:24.642Z,18.37
2019-05-26T01:58:52.940Z,18.92
2019-05-26T02:01:20.078Z,20.17
2019-05-26T02:03:47.092Z,19.32
2019-05-26T02:06:14.332Z,20.10
2019-05-26T02:08:41.596Z,20.65
2019-05-26T02:11:08.588Z,20.30
2019-05-26T02:13:35.938Z,18.15
2019-05-26T02:16:03.976Z,19.17
2019-05-26T02:18:31.205Z,19.25
2019-05-26T02:20:59.345Z,19.25
2019-05-26T02:23:26.894Z,18.85
2019-05-26T02:25:54.114Z,20.92
2019-05-26T02:28:21.366Z,20.08
2019-05-26T02:30:48.837Z,22.10
2019-05-26T02:33:16.244Z,20.85
2019-05-26T02:35:43.769Z,21.02
2019-05-26T02:38:11.070Z,19.65
2019-05-26T02:40:38.696Z,18.55
2019-05-26T02:43:06.454Z,18.90
2019-05-26T02:45:34.132Z,19.25
2019-05-26T02:48:01.593Z,17.35
2019-05-26T02:50:29.199Z,17.62
2019-05-26T02:55:43.319Z,16.50
2019-05-26T02:58:11.168Z,16.90
2019-05-26T03:00:46.117Z,15.63
2019-05-26T03:03:15.602Z,15.65
2019-05-26T03:05:44.432Z,14.07
2019-05-26T03:08:13.895Z,15.83
2019-05-26T03:10:41.774Z,14.38
2019-05-26T03:13:14.746Z,14.78
2019-05-26T03:15:44.478Z,14.58
2019-05-26T03:18:11.572Z,15.28
2019-05-26T03:20:40.218Z,15.90
2019-05-26T03:23:08.329Z,14.13
2019-05-26T03:25:36.886Z,14.40
2019-05-26T03:28:07.629Z,14.23
2019-05-26T03:30:37.200Z,14.00
2019-05-26T03:33:04.698Z,14.50
2019-05-26T03:35:32.044Z,14.40
2019-05-26T03:37:59.257Z,14.93
2019-05-26T03:40:26.360Z,16.07
2019-05-26T03:42:53.289Z,16.40
2019-05-26T03:45:41.320Z,17.05
2019-05-26T03:48:08.426Z,17.05
2019-05-26T03:50:36.084Z,17.80
2019-05-26T03:53:03.217Z,17.12
2019-05-26T03:55:30.382Z,18.60
2019-05-26T03:57:57.517Z,16.27
2019-05-26T04:00:25.042Z,15.40
2019-05-26T04:02:51.983Z,16.62
2019-05-26T04:05:19.036Z,15.55
2019-05-26T04:07:45.965Z,14.33
2019-05-26T04:10:13.860Z,13.88
2019-05-26T04:12:40.901Z,14.30
2019-05-26T04:15:08.327Z,13.30
2019-05-26T04:17:35.493Z,14.70
2019-05-26T04:20:03.920Z,14.33
2019-05-26T04:22:30.820Z,14.10
2019-05-26T04:24:57.840Z,16.32
2019-05-26T04:27:25.036Z,15.28
2019-05-26T04:29:52.057Z,15.35
2019-05-26T04:32:18.954Z,15.88
2019-05-26T04:34:45.926Z,13.10
2019-05-26T04:37:12.847Z,13.20
2019-05-26T04:39:40.031Z,14.65
2019-05-26T04:42:07.338Z,14.28
2019-05-26T04:44:34.347Z,14.73
2019-05-26T04:47:01.543Z,14.38
2019-05-26T04:49:28.821Z,14.03
2019-05-26T04:51:55.943Z,12.58
2019-05-26T04:54:23.115Z,11.63
2019-05-26T04:56:50.070Z,9.45
2019-05-26T04:59:17.196Z,10.10
2019-05-26T05:01:44.195Z,10.58
2019-05-26T05:04:11.540Z,10.48
2019-05-26T05:06:38.744Z,11.68
2019-05-26T05:09:06.740Z,11.57
2019-05-26T05:11:35.108Z,11.88
2019-05-26T05:14:03.015Z,11.25
2019-05-26T05:16:30.080Z,11.33
2019-05-26T05:18:57.484Z,10.70
2019-05-26T05:21:24.585Z,10.90
2019-05-26T05:23:51.987Z,10.98
2019-05-26T05:26:19.520Z,11.25
2019-05-26T05:28:46.733Z,12.03
2019-05-26T05:31:15.204Z,11.50
2019-05-26T05:33:42.299Z,11.20
2019-05-26T05:36:09.402Z,11.10
2019-05-26T05:38:36.643Z,11.57
2019-05-26T05:41:03.868Z,10.78
2019-05-26T05:43:31.120Z,11.43
2019-05-26T05:45:58.291Z,11.48
2019-05-26T05:48:25.309Z,10.45
2019-05-26T05:50:52.973Z,10.03
2019-05-26T05:53:19.874Z,9.93
2019-05-26T05:55:46.911Z,10.23
2019-05-26T05:58:13.846Z,9.28
2019-05-26T06:00:41.317Z,9.15
2019-05-26T06:03:08.315Z,9.83
2019-05-26T06:05:35.336Z,10.00
2019-05-26T06:08:02.732Z,11.40
2019-05-26T06:10:29.743Z,10.68
2019-05-26T06:12:56.751Z,10.25
2019-05-26T06:15:23.978Z,10.28
2019-05-26T06:17:50.906Z,10.45
2019-05-26T06:20:19.720Z,10.90
2019-05-26T06:22:46.624Z,10.85
2019-05-26T06:25:14.401Z,10.15
2019-05-26T06:27:41.529Z,10.10
2019-05-26T06:30:09.398Z,10.00
2019-05-26T06:32:36.415Z,10.05
2019-05-26T06:35:04.358Z,9.80
2019-05-26T06:37:31.356Z,10.03
2019-05-26T06:39:59.316Z,9.55
2019-05-26T06:42:26.360Z,9.35
2019-05-26T06:44:54.218Z,9.38
2019-05-26T06:47:21.547Z,9.28
2019-05-26T06:49:48.464Z,8.93
2019-05-26T06:52:15.405Z,10.28
2019-05-26T06:54:42.419Z,9.75
2019-05-26T06:57:09.619Z,9.60
2019-05-26T06:59:36.695Z,9.83
2019-05-26T07:02:03.943Z,9.20
2019-05-26T07:04:30.845Z,9.28
2019-05-26T07:06:58.116Z,10.30
2019-05-26T07:09:25.347Z,10.25
2019-05-26T07:11:59.716Z,11.03
2019-05-26T07:14:21.848Z,10.68
2019-05-26T07:16:48.748Z,10.00
2019-05-26T07:19:15.779Z,9.78
2019-05-26T07:21:43.091Z,9.10
2019-05-26T07:24:10.128Z,9.75
2019-05-26T07:26:37.067Z,9.38
2019-05-26T07:29:04.113Z,8.75
2019-05-26T07:31:31.323Z,8.85
2019-05-26T07:33:58.527Z,8.73
2019-05-26T07:36:25.452Z,9.15
2019-05-26T07:38:52.472Z,9.05
2019-05-26T07:41:19.635Z,9.10
2019-05-26T07:43:46.448Z,8.60
2019-05-26T07:46:13.413Z,8.63
2019-05-26T07:48:40.417Z,7.90
2019-05-26T07:51:07.557Z,7.65
2019-05-26T07:53:34.700Z,7.70
2019-05-26T07:56:01.724Z,7.37
2019-05-26T07:58:28.872Z,7.75
2019-05-26T08:00:56.159Z,6.92
2019-05-26T08:03:23.410Z,6.83
2019-05-26T08:05:50.379Z,5.85
2019-05-26T08:08:17.381Z,7.83
2019-05-26T08:10:44.409Z,7.60
2019-05-26T08:13:11.626Z,7.10
2019-05-26T08:15:38.679Z,6.85
2019-05-26T08:18:05.789Z,7.28
2019-05-26T08:20:33.481Z,6.83
2019-05-26T08:23:00.390Z,7.85
2019-05-26T08:25:27.438Z,7.40
2019-05-26T08:27:54.363Z,7.78
2019-05-26T08:30:21.890Z,7.70
2019-05-26T08:32:49.253Z,7.50
2019-05-26T08:35:16.255Z,8.18
2019-05-26T08:37:43.223Z,7.50
2019-05-26T08:40:17.027Z,8.73
2019-05-26T08:42:46.298Z,8.48
2019-05-26T08:45:13.462Z,8.05
2019-05-26T08:47:40.651Z,8.05
2019-05-26T08:50:08.271Z,8.15
2019-05-26T08:52:35.426Z,7.47
2019-05-26T08:55:05.786Z,7.25
2019-05-26T08:57:32.683Z,7.00
2019-05-26T08:59:59.789Z,6.58
2019-05-26T09:02:26.873Z,7.25
2019-05-26T09:04:53.895Z,7.90
2019-05-26T09:07:20.935Z,7.35
2019-05-26T09:09:47.987Z,7.28
2019-05-26T09:12:15.429Z,6.25
2019-05-26T09:14:42.336Z,6.58
2019-05-26T09:17:09.443Z,7.55
2019-05-26T09:19:36.279Z,7.25
2019-05-26T09:22:03.611Z,7.37
2019-05-26T09:24:30.618Z,7.22
2019-05-26T09:26:57.765Z,7.67
2019-05-26T09:29:24.758Z,7.30
2019-05-26T09:31:52.123Z,6.37
2019-05-26T09:34:19.167Z,6.62
2019-05-26T09:36:46.076Z,6.80
2019-05-26T09:39:13.041Z,6.33
2019-05-26T09:41:39.963Z,6.83
2019-05-26T09:44:06.897Z,7.03
2019-05-26T09:46:33.801Z,7.65
2019-05-26T09:49:01.197Z,7.65
2019-05-26T09:51:28.875Z,6.85
2019-05-26T09:54:01.616Z,6.53
2019-05-26T09:56:24.846Z,6.37
2019-05-26T09:58:51.681Z,7.00
2019-05-26T10:01:18.686Z,6.62
2019-05-26T10:03:45.839Z,7.15
2019-05-26T10:06:12.952Z,8.48
2019-05-26T10:08:40.520Z,6.28
2019-05-26T10:11:07.611Z,6.83
2019-05-26T10:13:34.819Z,6.85
2019-05-26T10:16:01.816Z,7.75
2019-05-26T10:18:28.832Z,7.50
2019-05-26T10:20:55.888Z,8.23
2019-05-26T10:23:22.891Z,7.05
2019-05-26T10:25:50.303Z,6.58
2019-05-26T10:28:17.309Z,6.30
2019-05-26T10:30:44.414Z,6.40
2019-05-26T10:33:11.391Z,6.85
2019-05-26T10:35:38.293Z,7.08
2019-05-26T10:38:05.317Z,6.45
2019-05-26T10:40:32.327Z,6.72
2019-05-26T10:42:59.590Z,6.12
2019-05-26T10:45:26.592Z,6.67
2019-05-26T10:47:53.859Z,6.75
2019-05-26T10:50:21.481Z,6.03
2019-05-26T10:52:48.321Z,6.35
2019-05-26T10:55:15.513Z,6.70
2019-05-26T10:57:42.473Z,6.50
2019-05-26T11:00:10.148Z,6.83
2019-05-26T11:02:37.161Z,6.78
2019-05-26T11:05:05.574Z,6.85
2019-05-26T11:07:32.706Z,8.03
2019-05-26T11:09:59.755Z,7.37
2019-05-26T11:12:26.679Z,7.90
2019-05-26T11:14:53.743Z,7.80
2019-05-26T11:17:21.269Z,7.12
2019-05-26T11:19:48.151Z,6.60
2019-05-26T11:22:15.388Z,6.62
2019-05-26T11:24:42.428Z,6.85
2019-05-26T11:27:12.678Z,6.30
2019-05-26T11:36:52.229Z,6.72
2019-05-26T11:39:19.275Z,6.75
2019-05-26T11:41:54.380Z,6.65
2019-05-26T11:44:17.790Z,6.95
2019-05-26T11:46:43.963Z,6.87
2019-05-26T11:49:11.054Z,7.17
2019-05-26T11:51:38.389Z,7.10
2019-05-26T11:54:05.566Z,9.70
2019-05-26T11:56:32.592Z,10.10
2019-05-26T11:58:59.736Z,10.53
2019-05-26T12:01:26.808Z,9.55
2019-05-26T12:03:53.841Z,9.75
2019-05-26T12:06:20.992Z,9.68
2019-05-26T12:08:48.175Z,7.62
2019-05-26T12:11:15.303Z,7.12
2019-05-26T12:13:42.468Z,7.30
2019-05-26T12:16:10.331Z,7.85
2019-05-26T12:18:37.363Z,7.95
2019-05-26T12:21:04.404Z,7.35
2019-05-26T12:23:31.403Z,7.22
2019-05-26T12:25:58.735Z,7.87
2019-05-26T12:28:25.631Z,9.18
2019-05-26T12:30:52.831Z,8.30
2019-05-26T12:33:19.823Z,8.10
2019-05-26T12:35:46.824Z,7.37
2019-05-26T12:38:14.068Z,7.90
2019-05-26T12:40:41.603Z,7.60
2019-05-26T12:43:08.794Z,7.35
2019-05-26T12:45:35.804Z,7.60
2019-05-26T12:48:03.636Z,8.20
2019-05-26T12:50:31.104Z,8.13
2019-05-26T12:52:58.035Z,7.85
2019-05-26T12:55:24.947Z,7.45
2019-05-26T12:57:52.067Z,7.67
2019-05-26T13:00:19.318Z,8.33
2019-05-26T13:02:46.390Z,9.55
2019-05-26T13:05:14.246Z,8.13
2019-05-26T13:07:41.273Z,7.55
2019-05-26T13:10:09.193Z,7.25
2019-05-26T13:12:36.279Z,6.87
2019-05-26T13:15:10.499Z,6.65
2019-05-26T13:17:37.631Z,6.15
2019-05-26T13:20:06.351Z,6.50
2019-05-26T13:22:33.275Z,7.33
2019-05-26T13:25:00.588Z,7.00
2019-05-26T13:27:27.847Z,6.80
2019-05-26T13:29:54.870Z,7.15
2019-05-26T13:32:21.806Z,6.37
2019-05-26T13:34:48.714Z,6.42
2019-05-26T13:37:15.748Z,6.28
2019-05-26T13:39:42.827Z,5.85
2019-05-26T13:42:09.968Z,8.28
2019-05-26T13:44:36.960Z,12.13
2019-05-26T13:47:04.275Z,10.95
2019-05-26T13:49:31.387Z,10.20
2019-05-26T13:51:59.058Z,10.20
2019-05-26T13:54:26.107Z,8.93
2019-05-26T13:56:53.212Z,7.08
2019-05-26T13:59:20.492Z,6.65
2019-05-26T14:01:47.486Z,5.70
2019-05-26T14:04:14.534Z,5.40
2019-05-26T14:06:41.683Z,6.30
2019-05-26T14:09:09.201Z,6.22
2019-05-26T14:11:36.299Z,6.17
2019-05-26T14:14:03.851Z,6.47
2019-05-26T14:16:32.987Z,6.60
2019-05-26T14:19:02.076Z,6.87
2019-05-26T14:21:28.986Z,7.80
2019-05-26T14:23:55.987Z,8.43
2019-05-26T14:26:23.208Z,8.75
2019-05-26T14:28:50.406Z,9.75
2019-05-26T14:31:17.563Z,11.08
2019-05-26T14:33:44.640Z,9.53
2019-05-26T14:36:11.803Z,6.22
2019-05-26T14:38:43.111Z,6.70
2019-05-26T14:41:07.572Z,6.75
2019-05-26T14:43:34.650Z,5.70
2019-05-26T14:46:01.773Z,5.83
2019-05-26T14:48:29.152Z,5.83
2019-05-26T14:50:56.163Z,5.75
2019-05-26T14:53:23.654Z,5.03
2019-05-26T14:55:50.504Z,4.87
2019-05-26T14:58:17.668Z,5.85
2019-05-26T15:00:44.763Z,6.20
2019-05-26T15:03:12.003Z,5.95
2019-05-26T15:05:39.255Z,6.25
2019-05-26T15:08:06.563Z,5.95
2019-05-26T15:10:33.834Z,6.53
2019-05-26T15:13:00.933Z,6.78
2019-05-26T15:15:28.132Z,6.83
2019-05-26T15:17:55.273Z,6.53
2019-05-26T15:20:22.420Z,6.67
2019-05-26T15:31:13.485Z,7.58
2019-05-26T15:33:40.440Z,7.92
2019-05-26T15:36:07.571Z,6.97
2019-05-26T15:38:43.174Z,6.20
2019-05-26T15:41:03.759Z,5.87
2019-05-26T15:43:30.895Z,6.45
2019-05-26T15:45:57.935Z,4.30
2019-05-26T15:48:25.583Z,4.25
2019-05-26T15:50:52.502Z,4.08
2019-05-26T15:53:19.647Z,3.80
2019-05-26T15:55:46.585Z,4.10
2019-05-26T15:58:13.632Z,3.65
2019-05-26T16:00:40.592Z,3.58
2019-05-26T16:03:07.764Z,3.00
2019-05-26T16:05:34.660Z,2.98
2019-05-26T16:08:02.149Z,3.15
2019-05-26T16:10:28.943Z,3.37
2019-05-26T16:12:55.910Z,3.20
2019-05-26T16:15:23.197Z,3.83
2019-05-26T16:17:50.271Z,3.92
2019-05-26T16:20:17.775Z,4.55
2019-05-26T16:22:44.803Z,3.98
2019-05-26T16:25:12.241Z,4.05
2019-05-26T16:27:39.243Z,4.35
2019-05-26T16:30:07.004Z,4.10
2019-05-26T16:32:34.020Z,4.83
2019-05-26T16:35:00.881Z,5.20
2019-05-26T16:37:27.713Z,4.92
2019-05-26T16:39:56.017Z,4.28
2019-05-26T16:42:23.441Z,4.22
2019-05-26T16:44:50.356Z,4.65
2019-05-26T16:47:17.421Z,4.50
2019-05-26T16:49:44.332Z,5.00
2019-05-26T16:52:11.240Z,5.37
2019-05-26T16:54:38.421Z,5.40
2019-05-26T16:57:05.465Z,5.60
2019-05-26T16:59:32.479Z,5.78
2019-05-26T17:01:59.433Z,6.83
2019-05-26T17:04:26.745Z,7.08
2019-05-26T17:06:53.878Z,6.83
2019-05-26T17:09:21.185Z,6.25
2019-05-26T17:11:48.205Z,6.75
2019-05-26T17:14:15.298Z,6.97
2019-05-26T17:16:42.172Z,5.22
2019-05-26T17:19:09.357Z,5.00
2019-05-26T17:21:36.482Z,5.03
2019-05-26T17:24:04.011Z,4.85
2019-05-26T17:26:31.123Z,6.00
2019-05-26T17:28:58.063Z,4.35
2019-05-26T17:31:25.002Z,6.28
2019-05-26T17:33:52.155Z,6.05
2019-05-26T17:36:19.505Z,7.30
2019-05-26T17:38:46.498Z,8.05
2019-05-26T17:41:13.515Z,7.08
2019-05-26T17:43:40.726Z,7.58
2019-05-26T17:46:08.044Z,8.28
2019-05-26T17:48:35.035Z,7.58
2019-05-26T17:51:01.934Z,7.67
2019-05-26T17:53:29.195Z,7.67
2019-05-26T17:55:56.259Z,8.88
2019-05-26T17:58:32.200Z,9.03
2019-05-26T18:01:20.964Z,8.20
2019-05-26T18:03:47.973Z,7.30
2019-05-26T18:06:15.218Z,10.05
2019-05-26T18:08:42.521Z,7.05
2019-05-26T18:11:09.520Z,7.12
2019-05-26T18:13:36.444Z,6.70
2019-05-26T18:16:03.649Z,6.90
2019-05-26T18:18:31.020Z,7.15
2019-05-26T18:20:57.960Z,6.33
2019-05-26T18:23:24.851Z,7.65
2019-05-26T18:25:51.804Z,7.30
2019-05-26T18:28:18.720Z,7.62
2019-05-26T18:30:45.766Z,7.83
2019-05-26T18:33:12.911Z,8.68
2019-05-26T18:35:40.431Z,8.33
2019-05-26T18:38:07.441Z,7.67
2019-05-26T18:40:34.256Z,7.50
2019-05-26T18:43:01.202Z,6.00
2019-05-26T18:45:28.420Z,5.75
2019-05-26T18:48:03.021Z,6.40
2019-05-26T18:50:25.163Z,7.53
2019-05-26T18:52:52.008Z,8.05
2019-05-26T18:55:19.013Z,8.38
2019-05-26T18:57:46.223Z,8.90
2019-05-26T19:00:13.742Z,8.83
2019-05-26T19:02:41.471Z,9.20
2019-05-26T19:05:08.809Z,8.78
2019-05-26T19:07:35.928Z,8.10
2019-05-26T19:10:05.979Z,8.50
2019-05-26T19:12:33.121Z,7.87
2019-05-26T19:15:00.255Z,7.90
2019-05-26T19:17:27.461Z,9.25
2019-05-26T19:19:54.438Z,10.13
2019-05-26T19:22:21.683Z,7.67
2019-05-26T19:24:48.872Z,6.67
2019-05-26T19:27:16.222Z,6.10
2019-05-26T19:29:43.257Z,6.75
2019-05-26T19:32:10.485Z,9.83
2019-05-26T19:34:37.656Z,9.40
2019-05-26T19:37:07.533Z,9.70
2019-05-26T19:39:34.586Z,10.25
2019-05-26T19:42:01.551Z,9.85
2019-05-26T19:44:28.863Z,9.23
2019-05-26T19:46:55.959Z,7.72
2019-05-26T19:49:22.964Z,11.45
2019-05-26T19:51:50.055Z,11.35
2019-05-26T19:54:17.525Z,13.88
2019-05-26T19:56:44.470Z,13.65
2019-05-26T19:59:11.643Z,14.73
2019-05-26T20:01:38.791Z,15.98
2019-05-26T20:04:05.943Z,16.35
2019-05-26T20:06:33.054Z,16.30
2019-05-26T20:08:59.964Z,16.40
2019-05-26T20:11:27.104Z,16.42
2019-05-26T20:13:54.103Z,16.93
2019-05-26T20:16:21.275Z,17.52
2019-05-26T20:18:48.275Z,17.48
2019-05-26T20:21:16.824Z,17.32
2019-05-26T20:23:44.262Z,17.23
2019-05-26T20:26:11.513Z,17.10
2019-05-26T20:28:38.927Z,16.27
2019-05-26T20:31:05.991Z,16.93
2019-05-26T20:33:33.112Z,18.23
2019-05-26T20:36:00.475Z,17.75
2019-05-26T20:38:27.592Z,20.08
2019-05-26T20:40:54.866Z,18.70
2019-05-26T20:43:24.933Z,17.52
2019-05-26T20:45:50.753Z,17.32
2019-05-26T20:48:17.654Z,19.80
2019-05-26T20:50:44.890Z,23.70
2019-05-26T20:53:11.920Z,21.93
2019-05-26T20:55:38.984Z,20.40
2019-05-26T20:58:06.225Z,19.90
2019-05-26T21:00:33.396Z,18.87
2019-05-26T21:03:00.645Z,20.95
2019-05-26T21:05:27.667Z,20.35
2019-05-26T21:07:54.662Z,21.73
2019-05-26T21:10:21.675Z,21.25
2019-05-26T21:12:48.743Z,20.85
2019-05-26T21:15:16.030Z,22.25
2019-05-26T21:17:43.423Z,23.62
2019-05-26T21:20:11.627Z,22.15
2019-05-26T21:22:38.855Z,23.27
2019-05-26T21:25:06.621Z,23.83
2019-05-26T21:27:33.632Z,24.25
2019-05-26T21:30:00.486Z,24.52
2019-05-26T21:32:31.100Z,25.30
2019-05-26T21:34:56.680Z,22.35
2019-05-26T21:37:23.498Z,22.98
2019-05-26T21:39:50.439Z,21.90
2019-05-26T21:42:17.440Z,23.67
2019-05-26T21:44:44.744Z,24.47
2019-05-26T21:47:11.860Z,25.12
2019-05-26T21:49:38.898Z,25.12
2019-05-26T21:52:06.027Z,23.35
2019-05-26T21:54:33.779Z,19.40
2019-05-26T21:57:00.777Z,19.27
2019-05-26T21:59:27.800Z,18.25
2019-05-26T22:01:55.369Z,19.23
2019-05-26T22:04:22.502Z,18.07
2019-05-26T22:06:49.626Z,18.05
2019-05-26T22:09:16.694Z,18.25
2019-05-26T22:11:43.799Z,17.10
2019-05-26T22:14:11.113Z,16.40
2019-05-26T22:16:38.129Z,16.60
2019-05-26T22:19:05.412Z,16.12
2019-05-26T22:21:32.487Z,15.75
2019-05-26T22:23:59.430Z,16.65
2019-05-26T22:26:26.653Z,17.05
2019-05-26T22:28:53.543Z,16.42
2019-05-26T22:31:20.594Z,17.67
2019-05-26T22:33:47.558Z,17.77
2019-05-26T22:36:14.779Z,15.83
2019-05-26T22:38:41.713Z,14.23
2019-05-26T22:41:08.818Z,14.18
2019-05-26T22:43:36.022Z,14.05
2019-05-26T22:46:03.137Z,14.75
2019-05-26T22:48:30.699Z,14.78
2019-05-26T22:50:57.691Z,14.63
2019-05-26T22:53:24.824Z,15.80
2019-05-26T22:55:52.259Z,16.50
2019-05-26T22:58:19.385Z,16.62
2019-05-26T23:00:46.456Z,15.63
2019-05-26T23:03:13.452Z,14.53
2019-05-26T23:05:40.450Z,14.47
2019-05-26T23:08:07.716Z,15.70
2019-05-26T23:10:34.705Z,15.63
2019-05-26T23:13:01.624Z,16.80
2019-05-26T23:15:28.872Z,16.32
2019-05-26T23:17:56.667Z,14.55
2019-05-26T23:20:23.700Z,16.15
2019-05-26T23:22:50.971Z,14.25
2019-05-26T23:25:18.215Z,13.53
2019-05-26T23:27:45.324Z,13.50
2019-05-26T23:30:12.998Z,12.45
2019-05-26T23:32:40.054Z,13.43
2019-05-26T23:35:07.916Z,13.88
2019-05-26T23:37:37.771Z,13.38
2019-05-26T23:40:08.537Z,13.65
2019-05-26T23:42:35.662Z,13.90
2019-05-26T23:45:05.255Z,13.55
2019-05-26T23:47:32.563Z,12.15
2019-05-26T23:49:59.670Z,12.30
2019-05-26T23:52:27.105Z,11.57
2019-05-26T23:54:54.271Z,12.15
2019-05-26T23:57:21.512Z,12.70
2019-05-26T23:59:48.642Z,12.53
